Pagina principale
METAR-TAF:

METAR-TAF

Aeroporti :

Rasht, Iran

latitudine: 37-12N, longitudine: 049-38E, altezza: -7 m

Osservazione

Il bollettino è stato emesso 8 ore e 25 minuti fa, alle 18:00 UTC
Vento calmo
Temperature 16°C
Umidità 100%
Pressione 1018 hPa
Visibilità: 4000 m
foschia

METAR: OIGG 241800Z 00000KT 4000 BR NSC 16/16 Q1018

Ora: 05:55 (02:25 UTC)


TAF: mancante

Osservazioni e previsioni meteorologiche di più di 4000 aeroporti (messaggi METAR e TAF).

Le stazioni disponibili sono rappresentate dai dischi gialli e rossi sulla carta.

Puntare il mouse per vedere il nome della stazione.

Clicca sopra per visualizzare le osservazioni e previsioni meteorologiche.

Per cambiare la mappa : fare clic sui pulsanti verdi con una croce nera per ingrandire, il pulsante verde con un trattino per diminuire, o sulla freccia verde per le mappe adiacenti.


METAR-TAF: